Time;durP1;ratioP1;P1;durP2;ratioP2;P2;SDS_P1;SDS_P2;PMS_P1;PMS_P2;Temp;Humidity;BMP_temperature;BMP_pressure;BME280_temperature;BME280_humidity;BME280_pressure;Samples;Min_cycle;Max_cycle;Signal;HPM_P1;HPM_P2
2023/07/24 00:00:13;;;;;;;3.72;3.42;;;17.60;99.90;;;;;;4938116;29;20197;-77
2023/07/24 00:02:39;;;;;;;4.20;3.05;;;17.60;99.90;;;;;;4955459;28;20209;-77
2023/07/24 00:05:05;;;;;;;6.13;3.30;;;17.70;99.90;;;;;;4938299;29;20597;-77
2023/07/24 00:07:54;;;;;;;3.90;3.50;;;17.70;99.90;;;;;;4954319;29;20193;-77
2023/07/24 00:10:19;;;;;;;4.57;3.13;;;17.70;99.90;;;;;;4939149;29;20170;-77
2023/07/24 00:12:45;;;;;;;6.82;3.10;;;17.70;99.90;;;;;;4937932;29;20676;-77
2023/07/24 00:15:11;;;;;;;5.22;3.30;;;17.70;99.90;;;;;;4938392;29;20606;-77
2023/07/24 00:17:36;;;;;;;4.22;3.10;;;17.70;99.90;;;;;;4937791;29;20217;-77
2023/07/24 00:20:02;;;;;;;5.50;2.80;;;17.80;99.90;;;;;;4939034;29;20196;-77
2023/07/24 00:22:27;;;;;;;4.75;2.97;;;17.80;99.90;;;;;;4937902;29;20220;-77
2023/07/24 00:24:53;;;;;;;3.58;3.13;;;17.60;99.90;;;;;;4938951;29;20252;-76
2023/07/24 00:27:18;;;;;;;4.82;3.13;;;17.60;99.90;;;;;;4937824;29;20233;-77
2023/07/24 00:29:44;;;;;;;4.18;3.50;;;17.60;99.90;;;;;;4938794;29;20177;-77
2023/07/24 00:32:09;;;;;;;4.57;3.40;;;17.60;99.90;;;;;;4938118;29;20174;-76
2023/07/24 00:34:35;;;;;;;6.90;3.50;;;17.60;99.90;;;;;;4938856;29;20182;-76
2023/07/24 00:37:00;;;;;;;3.65;3.30;;;17.60;99.90;;;;;;4937694;29;20269;-76
2023/07/24 00:39:28;;;;;;;3.35;3.13;;;17.50;99.90;;;;;;4938139;29;20268;-76
2023/07/24 00:41:54;;;;;;;3.97;3.58;;;17.50;99.90;;;;;;4937909;29;20209;-76
2023/07/24 00:44:19;;;;;;;3.92;3.35;;;17.40;99.90;;;;;;4953933;28;20667;-76
2023/07/24 00:46:45;;;;;;;6.90;3.95;;;17.20;99.90;;;;;;4938065;29;20197;-76
2023/07/24 00:49:11;;;;;;;5.10;3.33;;;17.10;99.90;;;;;;4941280;29;20645;-76
2023/07/24 00:51:37;;;;;;;5.70;3.92;;;17.00;99.90;;;;;;4941077;29;20193;-76
2023/07/24 00:54:04;;;;;;;7.45;3.70;;;17.00;99.90;;;;;;4956895;29;20189;-76
2023/07/24 00:56:31;;;;;;;3.88;3.58;;;17.00;99.90;;;;;;4941521;29;20351;-76
2023/07/24 00:58:57;;;;;;;5.93;4.03;;;17.00;99.90;;;;;;4958044;29;20264;-76
2023/07/24 01:16:57;;;;;;;6.82;3.95;;;17.30;99.90;;;;;;5422699;23;20237;-76
2023/07/24 01:19:42;;;;;;;5.78;4.00;;;17.40;99.90;;;;;;4956358;28;20177;-76
2023/07/24 01:22:26;;;;;;;4.10;3.75;;;17.40;99.90;;;;;;4957099;29;20244;-76
2023/07/24 01:25:03;;;;;;;4.43;3.90;;;17.40;99.90;;;;;;4956845;29;20245;-76
2023/07/24 01:27:28;;;;;;;7.63;4.07;;;17.40;99.90;;;;;;4956561;29;20204;-76
2023/07/24 01:30:16;;;;;;;9.65;4.30;;;17.30;99.90;;;;;;4956869;29;20181;-76
2023/07/24 01:32:41;;;;;;;8.05;4.07;;;17.30;99.90;;;;;;4956998;29;20174;-76
2023/07/24 01:35:07;;;;;;;4.93;4.00;;;17.30;99.90;;;;;;4957348;28;20269;-76
2023/07/24 01:37:35;;;;;;;7.10;4.30;;;17.40;99.90;;;;;;4956091;28;20557;-76
2023/07/24 01:40:01;;;;;;;9.05;4.07;;;17.30;99.90;;;;;;4956060;29;20186;-76
2023/07/24 01:42:28;;;;;;;6.93;3.92;;;17.40;99.90;;;;;;4955936;28;20205;-76
2023/07/24 01:44:55;;;;;;;9.63;4.50;;;17.30;99.90;;;;;;4956019;28;20229;-76
2023/07/24 01:47:21;;;;;;;8.20;4.30;;;17.30;99.90;;;;;;4956205;28;20198;-76
2023/07/24 01:49:47;;;;;;;5.47;3.83;;;17.20;99.90;;;;;;4956152;29;20586;-76
2023/07/24 01:52:13;;;;;;;9.20;4.25;;;17.20;99.90;;;;;;4955818;29;20240;-76
2023/07/24 01:54:38;;;;;;;10.02;4.50;;;17.30;99.90;;;;;;4956157;29;20622;-76
2023/07/24 01:57:04;;;;;;;5.53;4.18;;;17.30;99.90;;;;;;4955673;28;20248;-76
2023/07/24 01:59:30;;;;;;;7.18;4.50;;;17.30;99.90;;;;;;4955589;29;20224;-76
2023/07/24 02:01:56;;;;;;;6.78;4.50;;;17.30;99.90;;;;;;4955521;28;20255;-76
2023/07/24 02:04:22;;;;;;;6.15;4.43;;;17.30;99.90;;;;;;4955517;28;20189;-76
2023/07/24 02:06:51;;;;;;;4.78;4.38;;;17.30;99.90;;;;;;4956680;28;20196;-76
2023/07/24 02:09:19;;;;;;;6.43;4.82;;;17.30;99.90;;;;;;4955866;29;20178;-76
2023/07/24 02:11:45;;;;;;;5.05;4.20;;;17.40;99.90;;;;;;4955819;28;20177;-76
2023/07/24 02:14:12;;;;;;;6.05;4.30;;;17.30;99.90;;;;;;4955766;28;20181;-76
2023/07/24 02:16:38;;;;;;;4.90;4.40;;;17.40;99.90;;;;;;4955654;29;20217;-76
2023/07/24 02:19:03;;;;;;;8.45;4.57;;;17.30;99.90;;;;;;4956462;28;20181;-76
2023/07/24 02:21:29;;;;;;;8.20;4.60;;;17.30;99.90;;;;;;4955281;29;20210;-76
2023/07/24 02:23:54;;;;;;;7.20;4.20;;;17.30;99.90;;;;;;4955311;28;20245;-76
2023/07/24 02:26:20;;;;;;;6.68;4.63;;;17.30;99.90;;;;;;4955661;29;20292;-76
2023/07/24 02:28:45;;;;;;;8.27;4.85;;;17.20;99.90;;;;;;4955186;28;20201;-76
2023/07/24 02:31:11;;;;;;;5.43;4.20;;;17.30;99.90;;;;;;4955415;28;20237;-76
2023/07/24 02:33:37;;;;;;;5.88;4.38;;;17.30;99.90;;;;;;4955101;29;20173;-76
2023/07/24 02:36:02;;;;;;;9.73;4.40;;;17.20;99.90;;;;;;4955331;29;20201;-76
2023/07/24 02:38:28;;;;;;;9.80;4.28;;;17.20;99.90;;;;;;4954861;29;20264;-76
2023/07/24 02:40:54;;;;;;;6.75;4.20;;;17.10;99.90;;;;;;4956063;28;20523;-76
2023/07/24 02:43:19;;;;;;;4.97;4.20;;;17.10;99.90;;;;;;4955047;29;20604;-76
2023/07/24 02:45:45;;;;;;;5.28;4.10;;;16.90;99.90;;;;;;4954789;28;20194;-76
2023/07/24 02:48:10;;;;;;;5.03;4.07;;;16.80;99.90;;;;;;4954839;29;20170;-76
2023/07/24 02:50:36;;;;;;;4.82;4.43;;;16.80;99.90;;;;;;4954810;28;20173;-76
2023/07/24 02:53:02;;;;;;;6.85;4.38;;;16.80;99.90;;;;;;4955268;28;20567;-76
2023/07/24 02:55:27;;;;;;;4.80;4.40;;;16.80;99.90;;;;;;4954982;28;20181;-76
2023/07/24 02:57:53;;;;;;;4.80;4.13;;;16.80;99.90;;;;;;4954647;28;20182;-76
2023/07/24 03:00:19;;;;;;;6.57;4.50;;;16.80;99.90;;;;;;4954962;29;20194;-76
2023/07/24 03:02:44;;;;;;;6.57;4.25;;;16.90;99.90;;;;;;4954558;29;20213;-76
2023/07/24 03:05:10;;;;;;;5.25;4.40;;;17.00;99.90;;;;;;4955660;28;20178;-76
2023/07/24 03:07:35;;;;;;;8.43;4.30;;;17.00;99.90;;;;;;4954491;29;20284;-76
2023/07/24 03:10:02;;;;;;;5.95;4.40;;;17.00;99.90;;;;;;4953856;28;20205;-76
2023/07/24 03:12:27;;;;;;;4.88;4.35;;;17.10;99.90;;;;;;4955756;29;20182;-76
2023/07/24 03:14:53;;;;;;;4.45;3.97;;;17.10;99.90;;;;;;4954985;28;20254;-76
2023/07/24 03:17:18;;;;;;;5.28;4.47;;;17.00;99.90;;;;;;4954743;29;20631;-76
2023/07/24 03:19:44;;;;;;;5.07;4.43;;;17.10;99.90;;;;;;4954459;29;20550;-77
